KARA/ARA METAR and TAF weather

Enter ICAO airport designator
Station Type Date Time Source
KARA METAR 2019/04/19 21:53 UTC NOAA

KARA 192153Z 31011KT 10SM BKN065 OVC080 16/09 A2990 RMK AO2 PK WND 32026/2132 SLP123 T01610094


Station Type Date Time Source
KARA Decoded METAR 2019/04/19 21:53 UTC NOAA

NEW IBERIA ACADIANA REGIONAL, LA, United States (KARA) 30-02N 091-53W 18M
Apr 19, 2019 - 05:53 PM EDT / 2019.04.19 2153 UTC
Wind: from the NW (310 degrees) at 13 MPH (11 KT):0
Visibility: 10 mile(s):0
Sky conditions: overcast
Temperature: 61.0 F (16.1 C)
Dew Point: 48.9 F (9.4 C)
Relative Humidity: 64%
Pressure (altimeter): 29.9 in. Hg (1012 hPa)
ob: KARA 192153Z 31011KT 10SM BKN065 OVC080 16/09 A2990 RMK AO2 PK WND 32026/2132 SLP123 T01610094
cycle: 22

Station Type Date Time Source
KARA TAF 2019/04/19 19:59 UTC NOAA

TAF
AMD KARA 191846Z 1919/2018 31017G27KT P6SM VCTS SCT040CB BKN100
FM200000 32014KT P6SM FEW060
FM200300 30007KT P6SM SKC
FM200600 28007KT P6SM SKC
FM201500 31007KT P6SM SKC

Example: see airport list